Yamato — JD2252 — position and weather

sailwx.info

Track history (hours):
 
Tides and Currents Weather Stations Pressure Air Temp Water Temp Dewpoint Dewpoint Depression Visibility Wind Speed Wind Dir Waves Ship Positions

Yamato

Last reported at 2016-Dec-05 01:33 UTC. Time now 2016-Dec-05 02:22 UTC.
Position N 35°23' E 139°40'.

Length 40 m; draft 3.6 m.

Type: Tug. MMSI: 431101141.

Date/timePositionNaut miles runAvg speedWind from/ knotsBaromVisibWave heightAir tempDewpointWater temp
2016-Dec-05 01:33N 35°23' E 139°40'0 0.0
2016-Dec-05 00:33N 35°23' E 139°40'5 5.4
2016-Dec-04 23:33N 35°28' E 139°42'1 1.3
2016-Dec-04 22:33N 35°27' E 139°43'3 2.5
2016-Dec-04 21:33N 35°27' E 139°40'0 0.0
2016-Dec-04 20:33N 35°27' E 139°40'0 0.0
2016-Dec-04 19:33N 35°27' E 139°40'0 0.0
2016-Dec-04 18:33N 35°27' E 139°40'0 0.0
2016-Dec-04 17:33N 35°27' E 139°40'0 0.0
2016-Dec-04 16:33N 35°27' E 139°40'0 0.0
2016-Dec-04 15:33N 35°27' E 139°40'0 0.0
2016-Dec-04 14:33N 35°27' E 139°40'0 0.0
2016-Dec-04 13:33N 35°27' E 139°40'0 0.0
2016-Dec-04 12:33N 35°27' E 139°40'0 0.0
2016-Dec-04 11:33N 35°27' E 139°40'0 0.0
2016-Dec-04 10:33N 35°27' E 139°40'0 0.0
2016-Dec-04 09:33N 35°27' E 139°40'0 0.0
2016-Dec-04 08:33N 35°27' E 139°40'0 0.0
2016-Dec-04 07:33N 35°27' E 139°40'0 0.0
2016-Dec-04 06:33N 35°27' E 139°40'0 0.0
2016-Dec-04 05:33N 35°27' E 139°40'0 0.0
2016-Dec-04 04:33N 35°27' E 139°40'0 0.0
2016-Dec-04 03:33N 35°27' E 139°40'0 0.0
2016-Dec-04 02:33N 35°27' E 139°40'0 0.0
2016-Dec-04 01:33N 35°27' E 139°40'0 0.0
2016-Dec-04 00:33N 35°27' E 139°40'0 0.0
2016-Dec-03 23:33N 35°27' E 139°40'0 0.0
2016-Dec-03 22:33N 35°27' E 139°40'0 0.0
2016-Dec-03 21:33N 35°27' E 139°40'0 0.0
2016-Dec-03 20:33N 35°27' E 139°40'0 0.0
2016-Dec-03 19:33N 35°27' E 139°40'0 0.0
2016-Dec-03 18:33N 35°27' E 139°40'0 0.0
2016-Dec-03 17:33N 35°27' E 139°40'0 0.0
2016-Dec-03 16:33N 35°27' E 139°40'0 0.0
2016-Dec-03 15:33N 35°27' E 139°40'0 0.0
2016-Dec-03 14:33N 35°27' E 139°40'0 0.0
2016-Dec-03 13:33N 35°27' E 139°40'0 0.0
2016-Dec-03 12:33N 35°27' E 139°40'0 0.0
2016-Dec-03 11:33N 35°27' E 139°40'0 0.0
2016-Dec-03 10:33N 35°27' E 139°40'0 0.0
2016-Dec-03 09:33N 35°27' E 139°40'0 0.0
2016-Dec-03 08:33N 35°27' E 139°40'0 0.0
2016-Dec-03 07:33N 35°27' E 139°40'0 0.0
2016-Dec-03 06:33N 35°27' E 139°40'0 0.0
2016-Dec-03 05:33N 35°27' E 139°40'4 3.8
2016-Dec-03 04:33N 35°28' E 139°44'4 3.6
2016-Dec-03 03:34N 35°31' E 139°46'4 3.6
2016-Dec-03 02:33N 35°28' E 139°44'0 0.2
2016-Dec-03 01:33N 35°28' E 139°44'0 0.0
2016-Dec-03 00:33N 35°28' E 139°44'0 0.3
2016-Dec-02 23:34N 35°28' E 139°44'3 2.6
2016-Dec-02 22:34N 35°31' E 139°45'4 3.8
2016-Dec-02 21:33N 35°27' E 139°43'3 2.6
2016-Dec-02 20:33N 35°27' E 139°40'0 0.1
2016-Dec-02 19:33N 35°27' E 139°40'0 0.0
2016-Dec-02 18:33N 35°27' E 139°40'0 0.0
2016-Dec-02 17:33N 35°27' E 139°40'0 0.0
2016-Dec-02 16:33N 35°27' E 139°40'0 0.0
2016-Dec-02 15:33N 35°27' E 139°40'0 0.0
2016-Dec-02 14:33N 35°27' E 139°40'0 0.0
2016-Dec-02 13:33N 35°27' E 139°40'0 0.0
2016-Dec-02 12:34N 35°27' E 139°40'0 0.0
2016-Dec-02 11:33N 35°27' E 139°40'0 0.0
2016-Dec-02 10:34N 35°27' E 139°40'0 0.0
2016-Dec-02 09:33N 35°27' E 139°40'0 0.0
2016-Dec-02 08:33N 35°27' E 139°40'0 0.0
2016-Dec-02 07:33N 35°27' E 139°40'1 1.4
2016-Dec-02 06:33N 35°28' E 139°41'1 1.5
2016-Dec-02 05:34N 35°27' E 139°40'0 0.0
2016-Dec-02 04:33N 35°27' E 139°40'4 1.5
2016-Dec-02 01:34N 35°23' E 139°41'3 2.8
2016-Dec-02 00:34N 35°25' E 139°42'2 2.3
2016-Dec-01 23:33N 35°27' E 139°40'0 0.0
2016-Dec-01 22:33N 35°27' E 139°40'0 0.0
2016-Dec-01 21:34N 35°27' E 139°40'0 0.0
2016-Dec-01 20:33N 35°27' E 139°40'0 0.0
2016-Dec-01 19:34N 35°27' E 139°40'0 0.0
2016-Dec-01 18:33N 35°27' E 139°40'0 0.0
2016-Dec-01 17:33N 35°27' E 139°40'0 0.0
2016-Dec-01 16:33N 35°27' E 139°40'0 0.0
2016-Dec-01 15:33N 35°27' E 139°40'0 0.0
2016-Dec-01 14:33N 35°27' E 139°40'0 0.0
2016-Dec-01 13:34N 35°27' E 139°40'0 0.0
2016-Dec-01 12:33N 35°27' E 139°40'0 0.0
2016-Dec-01 11:33N 35°27' E 139°40'0 0.0
2016-Dec-01 10:33N 35°27' E 139°40'0 0.0
2016-Dec-01 09:34N 35°27' E 139°40'0 0.0
2016-Dec-01 08:34N 35°27' E 139°40'0 0.0
2016-Dec-01 07:33N 35°27' E 139°40'0 0.0
2016-Dec-01 06:34N 35°27' E 139°40'0 0.0
2016-Dec-01 05:34N 35°27' E 139°40'0 0.0
2016-Dec-01 04:33N 35°27' E 139°40'0 0.0
2016-Dec-01 03:34N 35°27' E 139°40'0 0.0
2016-Dec-01 02:33N 35°27' E 139°40'0 0.0
2016-Dec-01 01:34N 35°27' E 139°40'0 0.1
2016-Dec-01 00:33N 35°27' E 139°39'2 2.3
2016-Nov-30 23:33N 35°26' E 139°42'2 2.4
2016-Nov-30 22:33N 35°23' E 139°41'4 3.6
2016-Nov-30 21:34N 35°27' E 139°41'2 2.4
2016-Nov-30 20:33N 35°27' E 139°39'0 0.0
2016-Nov-30 19:34N 35°27' E 139°39'0 0.0
2016-Nov-30 18:34N 35°27' E 139°39'0 0.0
2016-Nov-30 17:33N 35°27' E 139°39'0 0.0
2016-Nov-30 16:33N 35°27' E 139°39'0 0.0
2016-Nov-30 15:34N 35°27' E 139°39'0 0.0
2016-Nov-30 14:33N 35°27' E 139°39'0 0.0
2016-Nov-30 13:34N 35°27' E 139°39'0 0.0
2016-Nov-30 12:33N 35°27' E 139°39'0 0.0
2016-Nov-30 11:33N 35°27' E 139°39'0 0.0
2016-Nov-30 10:34N 35°27' E 139°39'2 2.1
2016-Nov-30 09:34N 35°26' E 139°41'2 1.6
2016-Nov-30 08:33N 35°26' E 139°43'4 3.6
2016-Nov-30 07:34N 35°27' E 139°39'1 0.6
2016-Nov-30 06:34N 35°27' E 139°39'1 0.6
2016-Nov-30 05:34N 35°27' E 139°39'0 0.0
2016-Nov-30 04:34N 35°27' E 139°39'0 0.0
2016-Nov-30 03:33N 35°27' E 139°39'2 1.7
2016-Nov-30 02:34N 35°27' E 139°41'1 1.0
2016-Nov-30 01:34N 35°28' E 139°40'1 1.3
2016-Nov-30 00:33N 35°27' E 139°39'0 0.0
2016-Nov-29 23:33N 35°27' E 139°39'1 1.2
2016-Nov-29 22:33N 35°27' E 139°41'2 1.7
2016-Nov-29 21:34N 35°26' E 139°42'3 3.1
2016-Nov-29 20:34N 35°27' E 139°39'0 0.0
2016-Nov-29 19:33N 35°27' E 139°39'0 0.0
2016-Nov-29 18:34N 35°27' E 139°39'0 0.0
2016-Nov-29 17:34N 35°27' E 139°39'0 0.0
2016-Nov-29 16:33N 35°27' E 139°39'0 0.0
2016-Nov-29 15:33N 35°27' E 139°39'0 0.0
2016-Nov-29 14:34N 35°27' E 139°39'0 0.0
2016-Nov-29 13:34N 35°27' E 139°39'0 0.0
2016-Nov-29 12:33N 35°27' E 139°39'0 0.0
2016-Nov-29 11:33N 35°27' E 139°39'0 0.0
2016-Nov-29 10:33N 35°27' E 139°39'0 0.0
2016-Nov-29 09:33N 35°27' E 139°39'0 0.0
2016-Nov-29 08:33N 35°27' E 139°39'0 0.0
2016-Nov-29 07:33N 35°27' E 139°39'0 0.0
2016-Nov-29 06:34N 35°27' E 139°39'0 0.0
2016-Nov-29 05:34N 35°27' E 139°39'0 0.0
2016-Nov-29 04:33N 35°27' E 139°39'0 0.0
2016-Nov-29 03:34N 35°27' E 139°39'0 0.0
2016-Nov-29 02:33N 35°27' E 139°39'0 0.0
2016-Nov-29 01:34N 35°27' E 139°39'0 0.0
2016-Nov-29 00:33N 35°27' E 139°39'0 0.0
2016-Nov-28 23:34N 35°27' E 139°39'2 2.1
2016-Nov-28 22:33N 35°26' E 139°41'1 1.1
2016-Nov-28 21:33N 35°26' E 139°42'3 3.3
2016-Nov-28 20:33N 35°28' E 139°39'0 0.2
2016-Nov-28 19:34N 35°27' E 139°39'0 0.0
2016-Nov-28 18:34N 35°27' E 139°39'0 0.0
2016-Nov-28 17:34N 35°27' E 139°39'0 0.0
2016-Nov-28 16:34N 35°27' E 139°39'0 0.0
2016-Nov-28 15:34N 35°27' E 139°39'0 0.0
2016-Nov-28 14:33N 35°27' E 139°39'0 0.0
2016-Nov-28 13:33N 35°27' E 139°39'0 0.0
2016-Nov-28 12:34N 35°27' E 139°39'0 0.0
2016-Nov-28 11:34N 35°27' E 139°39'0 0.0
2016-Nov-28 10:34N 35°27' E 139°39'0 0.0
2016-Nov-28 09:34N 35°27' E 139°39'0 0.0
2016-Nov-28 08:33N 35°27' E 139°39'3 2.6
2016-Nov-28 07:33N 35°28' E 139°42'2 2.5
2016-Nov-28 06:34N 35°27' E 139°39'0 0.2
2016-Nov-28 05:33N 35°27' E 139°39'0 0.0
2016-Nov-28 04:34N 35°27' E 139°39'0 0.0
2016-Nov-28 03:33N 35°27' E 139°39'0 0.0
2016-Nov-28 02:34N 35°27' E 139°39'0 0.0
2016-Nov-28 01:34N 35°27' E 139°39'2 1.7
2016-Nov-28 00:34N 35°27' E 139°41'4 4.2
2016-Nov-27 23:33N 35°29' E 139°45'1 0.5
2016-Nov-27 22:34N 35°29' E 139°45'6 5.7
2016-Nov-27 21:34N 35°27' E 139°39'0 0.0
2016-Nov-27 20:33N 35°27' E 139°39'0 0.0
2016-Nov-27 19:33N 35°27' E 139°39'0 0.0
2016-Nov-27 18:34N 35°27' E 139°39'0 0.0
2016-Nov-27 17:33N 35°27' E 139°39'0 0.0
2016-Nov-27 16:33N 35°27' E 139°39'0 0.0
2016-Nov-27 15:34N 35°27' E 139°39'0 0.0
2016-Nov-27 14:33N 35°27' E 139°39'0 0.0
2016-Nov-27 13:33N 35°27' E 139°39'0 0.0
2016-Nov-27 12:34N 35°27' E 139°39'0 0.0
2016-Nov-27 11:34N 35°27' E 139°39'0 0.0
2016-Nov-27 10:34N 35°27' E 139°39'0 0.0
2016-Nov-27 09:34N 35°27' E 139°39'0 0.0
2016-Nov-27 08:34N 35°27' E 139°39'0 0.0
2016-Nov-27 07:33N 35°27' E 139°39'0 0.0
2016-Nov-27 06:33N 35°27' E 139°39'0 0.0
2016-Nov-27 05:33N 35°27' E 139°39'0 0.0
2016-Nov-27 04:33N 35°27' E 139°39'0 0.0
2016-Nov-27 03:33N 35°27' E 139°39'0 0.0
2016-Nov-27 02:33N 35°27' E 139°39'0 0.0
2016-Nov-27 01:33N 35°27' E 139°39'0 0.0
2016-Nov-27 00:33N 35°27' E 139°39'0 0.0
2016-Nov-26 23:33N 35°27' E 139°39'0 0.0
2016-Nov-26 22:33N 35°27' E 139°39'0 0.0
2016-Nov-26 21:33N 35°27' E 139°39'0 0.0
2016-Nov-26 20:33N 35°27' E 139°39'0 0.0
2016-Nov-26 19:33N 35°27' E 139°39'0 0.0
2016-Nov-26 18:33N 35°27' E 139°39'0 0.0
2016-Nov-26 17:33N 35°27' E 139°39'0 0.0
2016-Nov-26 16:33N 35°27' E 139°39'0 0.0
2016-Nov-26 15:33N 35°27' E 139°39'0 0.0
2016-Nov-26 14:33N 35°27' E 139°39'0 0.0
2016-Nov-26 13:33N 35°27' E 139°39'0 0.0
2016-Nov-26 12:33N 35°27' E 139°39'0 0.0
2016-Nov-26 11:33N 35°27' E 139°39'0 0.0
2016-Nov-26 10:33N 35°27' E 139°39'0 0.0
2016-Nov-26 09:33N 35°27' E 139°39'0 0.0
2016-Nov-26 08:33N 35°27' E 139°39'0 0.0
2016-Nov-26 07:33N 35°27' E 139°39'0 0.0
2016-Nov-26 06:33N 35°27' E 139°39'0 0.0
2016-Nov-26 05:33N 35°27' E 139°39'0 0.0
2016-Nov-26 04:34N 35°27' E 139°39'0 0.0
2016-Nov-26 03:34N 35°27' E 139°39'0 0.0
2016-Nov-26 02:34N 35°27' E 139°39'0 0.0
2016-Nov-26 01:34N 35°27' E 139°39'0 0.0
2016-Nov-26 00:34N 35°27' E 139°39'2 2.1
2016-Nov-25 23:34N 35°26' E 139°41'1 1.0
2016-Nov-25 22:33N 35°27' E 139°42'0 0.0
2016-Nov-25 21:34N 35°27' E 139°42'0 0.0
2016-Nov-25 20:33N 35°27' E 139°42'1 1.2
2016-Nov-25 19:34N 35°26' E 139°41'1 1.2
2016-Nov-25 18:33N 35°27' E 139°42'0 0.0
2016-Nov-25 17:34N 35°27' E 139°42'1 1.1
2016-Nov-25 16:33N 35°27' E 139°41'1 1.1
2016-Nov-25 15:34N 35°26' E 139°42'0 0.0
2016-Nov-25 14:33N 35°26' E 139°42'2 2.2
2016-Nov-25 13:34N 35°24' E 139°40'0 0.4
2016-Nov-25 12:34N 35°24' E 139°41'1 0.9
2016-Nov-25 11:34N 35°23' E 139°40'3 3.2
2016-Nov-25 10:34N 35°27' E 139°41'1 1.2
2016-Nov-25 09:34N 35°27' E 139°42'0 0.0
2016-Nov-25 08:34N 35°27' E 139°42'1 1.4
2016-Nov-25 07:34N 35°27' E 139°40'2 1.7
2016-Nov-25 06:33N 35°27' E 139°39'0 0.0
2016-Nov-25 05:34N 35°27' E 139°39'0 0.0
2016-Nov-25 04:34N 35°27' E 139°39'0 0.0
2016-Nov-25 03:34N 35°27' E 139°39'0 0.0
2016-Nov-25 02:34N 35°27' E 139°39'0 0.0
2016-Nov-25 01:34N 35°27' E 139°39'  
Track history (hours):
 
Tides and Currents Weather Stations Pressure Air Temp Water Temp Dewpoint Dewpoint Depression Visibility Wind Speed Wind Dir Waves Ship Positions

Yamato

Last reported at 2016-Dec-05 01:33 UTC. Time now 2016-Dec-05 02:22 UTC.
Position N 35°23' E 139°40'.

Length 40 m; draft 3.6 m.

Type: Tug. MMSI: 431101141.

Date/timePositionNaut miles runAvg speedWind from/ knotsBaromVisibWave heightAir tempDewpointWater temp
2016-Dec-05 01:33N 35°23' E 139°40'0 0.0
2016-Dec-05 00:33N 35°23' E 139°40'5 5.4
2016-Dec-04 23:33N 35°28' E 139°42'1 1.3
2016-Dec-04 22:33N 35°27' E 139°43'3 2.5
2016-Dec-04 21:33N 35°27' E 139°40'0 0.0
2016-Dec-04 20:33N 35°27' E 139°40'0 0.0
2016-Dec-04 19:33N 35°27' E 139°40'0 0.0
2016-Dec-04 18:33N 35°27' E 139°40'0 0.0
2016-Dec-04 17:33N 35°27' E 139°40'0 0.0
2016-Dec-04 16:33N 35°27' E 139°40'0 0.0
2016-Dec-04 15:33N 35°27' E 139°40'0 0.0
2016-Dec-04 14:33N 35°27' E 139°40'0 0.0
2016-Dec-04 13:33N 35°27' E 139°40'0 0.0
2016-Dec-04 12:33N 35°27' E 139°40'0 0.0
2016-Dec-04 11:33N 35°27' E 139°40'0 0.0
2016-Dec-04 10:33N 35°27' E 139°40'0 0.0
2016-Dec-04 09:33N 35°27' E 139°40'0 0.0
2016-Dec-04 08:33N 35°27' E 139°40'0 0.0
2016-Dec-04 07:33N 35°27' E 139°40'0 0.0
2016-Dec-04 06:33N 35°27' E 139°40'0 0.0
2016-Dec-04 05:33N 35°27' E 139°40'0 0.0
2016-Dec-04 04:33N 35°27' E 139°40'0 0.0
2016-Dec-04 03:33N 35°27' E 139°40'0 0.0
2016-Dec-04 02:33N 35°27' E 139°40'0 0.0
2016-Dec-04 01:33N 35°27' E 139°40'0 0.0
2016-Dec-04 00:33N 35°27' E 139°40'0 0.0
2016-Dec-03 23:33N 35°27' E 139°40'0 0.0
2016-Dec-03 22:33N 35°27' E 139°40'0 0.0
2016-Dec-03 21:33N 35°27' E 139°40'0 0.0
2016-Dec-03 20:33N 35°27' E 139°40'0 0.0
2016-Dec-03 19:33N 35°27' E 139°40'0 0.0
2016-Dec-03 18:33N 35°27' E 139°40'0 0.0
2016-Dec-03 17:33N 35°27' E 139°40'0 0.0
2016-Dec-03 16:33N 35°27' E 139°40'0 0.0
2016-Dec-03 15:33N 35°27' E 139°40'0 0.0
2016-Dec-03 14:33N 35°27' E 139°40'0 0.0
2016-Dec-03 13:33N 35°27' E 139°40'0 0.0
2016-Dec-03 12:33N 35°27' E 139°40'0 0.0
2016-Dec-03 11:33N 35°27' E 139°40'0 0.0
2016-Dec-03 10:33N 35°27' E 139°40'0 0.0
2016-Dec-03 09:33N 35°27' E 139°40'0 0.0
2016-Dec-03 08:33N 35°27' E 139°40'0 0.0
2016-Dec-03 07:33N 35°27' E 139°40'0 0.0
2016-Dec-03 06:33N 35°27' E 139°40'0 0.0
2016-Dec-03 05:33N 35°27' E 139°40'4 3.8
2016-Dec-03 04:33N 35°28' E 139°44'4 3.6
2016-Dec-03 03:34N 35°31' E 139°46'4 3.6
2016-Dec-03 02:33N 35°28' E 139°44'0 0.2
2016-Dec-03 01:33N 35°28' E 139°44'0 0.0
2016-Dec-03 00:33N 35°28' E 139°44'0 0.3
2016-Dec-02 23:34N 35°28' E 139°44'3 2.6
2016-Dec-02 22:34N 35°31' E 139°45'4 3.8
2016-Dec-02 21:33N 35°27' E 139°43'3 2.6
2016-Dec-02 20:33N 35°27' E 139°40'0 0.1
2016-Dec-02 19:33N 35°27' E 139°40'0 0.0
2016-Dec-02 18:33N 35°27' E 139°40'0 0.0
2016-Dec-02 17:33N 35°27' E 139°40'0 0.0
2016-Dec-02 16:33N 35°27' E 139°40'0 0.0
2016-Dec-02 15:33N 35°27' E 139°40'0 0.0
2016-Dec-02 14:33N 35°27' E 139°40'0 0.0
2016-Dec-02 13:33N 35°27' E 139°40'0 0.0
2016-Dec-02 12:34N 35°27' E 139°40'0 0.0
2016-Dec-02 11:33N 35°27' E 139°40'0 0.0
2016-Dec-02 10:34N 35°27' E 139°40'0 0.0
2016-Dec-02 09:33N 35°27' E 139°40'0 0.0
2016-Dec-02 08:33N 35°27' E 139°40'0 0.0
2016-Dec-02 07:33N 35°27' E 139°40'1 1.4
2016-Dec-02 06:33N 35°28' E 139°41'1 1.5
2016-Dec-02 05:34N 35°27' E 139°40'0 0.0
2016-Dec-02 04:33N 35°27' E 139°40'4 1.5
2016-Dec-02 01:34N 35°23' E 139°41'3 2.8
2016-Dec-02 00:34N 35°25' E 139°42'2 2.3
2016-Dec-01 23:33N 35°27' E 139°40'0 0.0
2016-Dec-01 22:33N 35°27' E 139°40'0 0.0
2016-Dec-01 21:34N 35°27' E 139°40'0 0.0
2016-Dec-01 20:33N 35°27' E 139°40'0 0.0
2016-Dec-01 19:34N 35°27' E 139°40'0 0.0
2016-Dec-01 18:33N 35°27' E 139°40'0 0.0
2016-Dec-01 17:33N 35°27' E 139°40'0 0.0
2016-Dec-01 16:33N 35°27' E 139°40'0 0.0
2016-Dec-01 15:33N 35°27' E 139°40'0 0.0
2016-Dec-01 14:33N 35°27' E 139°40'0 0.0
2016-Dec-01 13:34N 35°27' E 139°40'0 0.0
2016-Dec-01 12:33N 35°27' E 139°40'0 0.0
2016-Dec-01 11:33N 35°27' E 139°40'0 0.0
2016-Dec-01 10:33N 35°27' E 139°40'0 0.0
2016-Dec-01 09:34N 35°27' E 139°40'0 0.0
2016-Dec-01 08:34N 35°27' E 139°40'0 0.0
2016-Dec-01 07:33N 35°27' E 139°40'0 0.0
2016-Dec-01 06:34N 35°27' E 139°40'0 0.0
2016-Dec-01 05:34N 35°27' E 139°40'0 0.0
2016-Dec-01 04:33N 35°27' E 139°40'0 0.0
2016-Dec-01 03:34N 35°27' E 139°40'0 0.0
2016-Dec-01 02:33N 35°27' E 139°40'0 0.0
2016-Dec-01 01:34N 35°27' E 139°40'0 0.1
2016-Dec-01 00:33N 35°27' E 139°39'2 2.3
2016-Nov-30 23:33N 35°26' E 139°42'2 2.4
2016-Nov-30 22:33N 35°23' E 139°41'4 3.6
2016-Nov-30 21:34N 35°27' E 139°41'2 2.4
2016-Nov-30 20:33N 35°27' E 139°39'0 0.0
2016-Nov-30 19:34N 35°27' E 139°39'0 0.0
2016-Nov-30 18:34N 35°27' E 139°39'0 0.0
2016-Nov-30 17:33N 35°27' E 139°39'0 0.0
2016-Nov-30 16:33N 35°27' E 139°39'0 0.0
2016-Nov-30 15:34N 35°27' E 139°39'0 0.0
2016-Nov-30 14:33N 35°27' E 139°39'0 0.0
2016-Nov-30 13:34N 35°27' E 139°39'0 0.0
2016-Nov-30 12:33N 35°27' E 139°39'0 0.0
2016-Nov-30 11:33N 35°27' E 139°39'0 0.0
2016-Nov-30 10:34N 35°27' E 139°39'2 2.1
2016-Nov-30 09:34N 35°26' E 139°41'2 1.6
2016-Nov-30 08:33N 35°26' E 139°43'4 3.6
2016-Nov-30 07:34N 35°27' E 139°39'1 0.6
2016-Nov-30 06:34N 35°27' E 139°39'1 0.6
2016-Nov-30 05:34N 35°27' E 139°39'0 0.0
2016-Nov-30 04:34N 35°27' E 139°39'0 0.0
2016-Nov-30 03:33N 35°27' E 139°39'2 1.7
2016-Nov-30 02:34N 35°27' E 139°41'1 1.0
2016-Nov-30 01:34N 35°28' E 139°40'1 1.3
2016-Nov-30 00:33N 35°27' E 139°39'0 0.0
2016-Nov-29 23:33N 35°27' E 139°39'1 1.2
2016-Nov-29 22:33N 35°27' E 139°41'2 1.7
2016-Nov-29 21:34N 35°26' E 139°42'3 3.1
2016-Nov-29 20:34N 35°27' E 139°39'0 0.0
2016-Nov-29 19:33N 35°27' E 139°39'0 0.0
2016-Nov-29 18:34N 35°27' E 139°39'0 0.0
2016-Nov-29 17:34N 35°27' E 139°39'0 0.0
2016-Nov-29 16:33N 35°27' E 139°39'0 0.0
2016-Nov-29 15:33N 35°27' E 139°39'0 0.0
2016-Nov-29 14:34N 35°27' E 139°39'0 0.0
2016-Nov-29 13:34N 35°27' E 139°39'0 0.0
2016-Nov-29 12:33N 35°27' E 139°39'0 0.0
2016-Nov-29 11:33N 35°27' E 139°39'0 0.0
2016-Nov-29 10:33N 35°27' E 139°39'0 0.0
2016-Nov-29 09:33N 35°27' E 139°39'0 0.0
2016-Nov-29 08:33N 35°27' E 139°39'0 0.0
2016-Nov-29 07:33N 35°27' E 139°39'0 0.0
2016-Nov-29 06:34N 35°27' E 139°39'0 0.0
2016-Nov-29 05:34N 35°27' E 139°39'0 0.0
2016-Nov-29 04:33N 35°27' E 139°39'0 0.0
2016-Nov-29 03:34N 35°27' E 139°39'0 0.0
2016-Nov-29 02:33N 35°27' E 139°39'0 0.0
2016-Nov-29 01:34N 35°27' E 139°39'0 0.0
2016-Nov-29 00:33N 35°27' E 139°39'0 0.0
2016-Nov-28 23:34N 35°27' E 139°39'2 2.1
2016-Nov-28 22:33N 35°26' E 139°41'1 1.1
2016-Nov-28 21:33N 35°26' E 139°42'3 3.3
2016-Nov-28 20:33N 35°28' E 139°39'0 0.2
2016-Nov-28 19:34N 35°27' E 139°39'0 0.0
2016-Nov-28 18:34N 35°27' E 139°39'0 0.0
2016-Nov-28 17:34N 35°27' E 139°39'0 0.0
2016-Nov-28 16:34N 35°27' E 139°39'0 0.0
2016-Nov-28 15:34N 35°27' E 139°39'0 0.0
2016-Nov-28 14:33N 35°27' E 139°39'0 0.0
2016-Nov-28 13:33N 35°27' E 139°39'0 0.0
2016-Nov-28 12:34N 35°27' E 139°39'0 0.0
2016-Nov-28 11:34N 35°27' E 139°39'0 0.0
2016-Nov-28 10:34N 35°27' E 139°39'0 0.0
2016-Nov-28 09:34N 35°27' E 139°39'0 0.0
2016-Nov-28 08:33N 35°27' E 139°39'3 2.6
2016-Nov-28 07:33N 35°28' E 139°42'2 2.5
2016-Nov-28 06:34N 35°27' E 139°39'0 0.2
2016-Nov-28 05:33N 35°27' E 139°39'0 0.0
2016-Nov-28 04:34N 35°27' E 139°39'0 0.0
2016-Nov-28 03:33N 35°27' E 139°39'0 0.0
2016-Nov-28 02:34N 35°27' E 139°39'0 0.0
2016-Nov-28 01:34N 35°27' E 139°39'2 1.7
2016-Nov-28 00:34N 35°27' E 139°41'4 4.2
2016-Nov-27 23:33N 35°29' E 139°45'1 0.5
2016-Nov-27 22:34N 35°29' E 139°45'6 5.7
2016-Nov-27 21:34N 35°27' E 139°39'0 0.0
2016-Nov-27 20:33N 35°27' E 139°39'0 0.0
2016-Nov-27 19:33N 35°27' E 139°39'0 0.0
2016-Nov-27 18:34N 35°27' E 139°39'0 0.0
2016-Nov-27 17:33N 35°27' E 139°39'0 0.0
2016-Nov-27 16:33N 35°27' E 139°39'0 0.0
2016-Nov-27 15:34N 35°27' E 139°39'0 0.0
2016-Nov-27 14:33N 35°27' E 139°39'0 0.0
2016-Nov-27 13:33N 35°27' E 139°39'0 0.0
2016-Nov-27 12:34N 35°27' E 139°39'0 0.0
2016-Nov-27 11:34N 35°27' E 139°39'0 0.0
2016-Nov-27 10:34N 35°27' E 139°39'0 0.0
2016-Nov-27 09:34N 35°27' E 139°39'0 0.0
2016-Nov-27 08:34N 35°27' E 139°39'0 0.0
2016-Nov-27 07:33N 35°27' E 139°39'0 0.0
2016-Nov-27 06:33N 35°27' E 139°39'0 0.0
2016-Nov-27 05:33N 35°27' E 139°39'0 0.0
2016-Nov-27 04:33N 35°27' E 139°39'0 0.0
2016-Nov-27 03:33N 35°27' E 139°39'0 0.0
2016-Nov-27 02:33N 35°27' E 139°39'0 0.0
2016-Nov-27 01:33N 35°27' E 139°39'0 0.0
2016-Nov-27 00:33N 35°27' E 139°39'0 0.0
2016-Nov-26 23:33N 35°27' E 139°39'0 0.0
2016-Nov-26 22:33N 35°27' E 139°39'0 0.0
2016-Nov-26 21:33N 35°27' E 139°39'0 0.0
2016-Nov-26 20:33N 35°27' E 139°39'0 0.0
2016-Nov-26 19:33N 35°27' E 139°39'0 0.0
2016-Nov-26 18:33N 35°27' E 139°39'0 0.0
2016-Nov-26 17:33N 35°27' E 139°39'0 0.0
2016-Nov-26 16:33N 35°27' E 139°39'0 0.0
2016-Nov-26 15:33N 35°27' E 139°39'0 0.0
2016-Nov-26 14:33N 35°27' E 139°39'0 0.0
2016-Nov-26 13:33N 35°27' E 139°39'0 0.0
2016-Nov-26 12:33N 35°27' E 139°39'0 0.0
2016-Nov-26 11:33N 35°27' E 139°39'0 0.0
2016-Nov-26 10:33N 35°27' E 139°39'0 0.0
2016-Nov-26 09:33N 35°27' E 139°39'0 0.0
2016-Nov-26 08:33N 35°27' E 139°39'0 0.0
2016-Nov-26 07:33N 35°27' E 139°39'0 0.0
2016-Nov-26 06:33N 35°27' E 139°39'0 0.0
2016-Nov-26 05:33N 35°27' E 139°39'0 0.0
2016-Nov-26 04:34N 35°27' E 139°39'0 0.0
2016-Nov-26 03:34N 35°27' E 139°39'0 0.0
2016-Nov-26 02:34N 35°27' E 139°39'0 0.0
2016-Nov-26 01:34N 35°27' E 139°39'0 0.0
2016-Nov-26 00:34N 35°27' E 139°39'2 2.1
2016-Nov-25 23:34N 35°26' E 139°41'1 1.0
2016-Nov-25 22:33N 35°27' E 139°42'0 0.0
2016-Nov-25 21:34N 35°27' E 139°42'0 0.0
2016-Nov-25 20:33N 35°27' E 139°42'1 1.2
2016-Nov-25 19:34N 35°26' E 139°41'1 1.2
2016-Nov-25 18:33N 35°27' E 139°42'0 0.0
2016-Nov-25 17:34N 35°27' E 139°42'1 1.1
2016-Nov-25 16:33N 35°27' E 139°41'1 1.1
2016-Nov-25 15:34N 35°26' E 139°42'0 0.0
2016-Nov-25 14:33N 35°26' E 139°42'2 2.2
2016-Nov-25 13:34N 35°24' E 139°40'0 0.4
2016-Nov-25 12:34N 35°24' E 139°41'1 0.9
2016-Nov-25 11:34N 35°23' E 139°40'3 3.2
2016-Nov-25 10:34N 35°27' E 139°41'1 1.2
2016-Nov-25 09:34N 35°27' E 139°42'0 0.0
2016-Nov-25 08:34N 35°27' E 139°42'1 1.4
2016-Nov-25 07:34N 35°27' E 139°40'2 1.7
2016-Nov-25 06:33N 35°27' E 139°39'0 0.0
2016-Nov-25 05:34N 35°27' E 139°39'0 0.0
2016-Nov-25 04:34N 35°27' E 139°39'0 0.0
2016-Nov-25 03:34N 35°27' E 139°39'0 0.0
2016-Nov-25 02:34N 35°27' E 139°39'0 0.0
2016-Nov-25 01:34N 35°27' E 139°39'  

Dump ship's entire track history